sensor_id;sensor_type;location;lat;lon;timestamp;pressure;altitude;pressure_sealevel;temperature;humidity
38191;BME280;25191;47.510;19.124;2024-02-26T00:19:01;99504.75;;;21.68;52.00
38191;BME280;25191;47.510;19.124;2024-02-26T00:39:01;99490.75;;;21.68;51.76
38191;BME280;25191;47.510;19.124;2024-02-26T00:59:03;99481.19;;;21.67;51.79
38191;BME280;25191;47.510;19.124;2024-02-26T01:19:04;99465.81;;;21.62;52.05
38191;BME280;25191;47.510;19.124;2024-02-26T01:39:04;99459.84;;;21.60;51.94
38191;BME280;25191;47.510;19.124;2024-02-26T01:59:05;99443.09;;;21.61;52.12
38191;BME280;25191;47.510;19.124;2024-02-26T02:19:07;99447.94;;;21.56;52.67
38191;BME280;25191;47.510;19.124;2024-02-26T02:39:07;99446.16;;;21.56;52.48
38191;BME280;25191;47.510;19.124;2024-02-26T02:59:08;99458.06;;;21.51;52.69
38191;BME280;25191;47.510;19.124;2024-02-26T03:19:08;99444.91;;;21.51;52.44
38191;BME280;25191;47.510;19.124;2024-02-26T03:39:10;99434.63;;;21.48;52.35
38191;BME280;25191;47.510;19.124;2024-02-26T03:59:10;99427.56;;;21.48;52.55
38191;BME280;25191;47.510;19.124;2024-02-26T04:19:11;99428.56;;;21.47;52.45
38191;BME280;25191;47.510;19.124;2024-02-26T04:39:11;99429.94;;;21.41;52.47
38191;BME280;25191;47.510;19.124;2024-02-26T04:59:11;99409.69;;;21.42;52.52
38191;BME280;25191;47.510;19.124;2024-02-26T05:19:12;99405.38;;;21.61;52.70
38191;BME280;25191;47.510;19.124;2024-02-26T05:39:12;99409.44;;;21.83;52.60
38191;BME280;25191;47.510;19.124;2024-02-26T05:59:19;99396.59;;;21.70;53.42
38191;BME280;25191;47.510;19.124;2024-02-26T06:19:19;99419.44;;;21.79;54.20
38191;BME280;25191;47.510;19.124;2024-02-26T06:39:20;99445.09;;;21.77;52.69
38191;BME280;25191;47.510;19.124;2024-02-26T06:59:20;99441.53;;;21.68;52.40
38191;BME280;25191;47.510;19.124;2024-02-26T07:19:21;99434.72;;;21.75;52.36
38191;BME280;25191;47.510;19.124;2024-02-26T07:39:22;99446.91;;;21.77;52.82
38191;BME280;25191;47.510;19.124;2024-02-26T07:59:23;99451.47;;;21.74;52.85
38191;BME280;25191;47.510;19.124;2024-02-26T08:19:26;99472.53;;;21.84;52.36
38191;BME280;25191;47.510;19.124;2024-02-26T08:39:27;99478.56;;;21.95;52.82
38191;BME280;25191;47.510;19.124;2024-02-26T08:59:28;99483.22;;;21.83;46.40
38191;BME280;25191;47.510;19.124;2024-02-26T09:19:34;99493.41;;;21.58;51.44
38191;BME280;25191;47.510;19.124;2024-02-26T09:39:35;99490.81;;;21.86;51.65
38191;BME280;25191;47.510;19.124;2024-02-26T09:59:39;99509.66;;;22.01;51.46
38191;BME280;25191;47.510;19.124;2024-02-26T10:19:40;99499.22;;;21.99;51.73
38191;BME280;25191;47.510;19.124;2024-02-26T10:39:46;99482.53;;;22.09;52.65
38191;BME280;25191;47.510;19.124;2024-02-26T10:59:48;99457.28;;;22.34;52.29
38191;BME280;25191;47.510;19.124;2024-02-26T11:19:51;99459.25;;;20.50;47.69
38191;BME280;25191;47.510;19.124;2024-02-26T11:39:52;99457.19;;;22.26;49.78
38191;BME280;25191;47.510;19.124;2024-02-26T11:59:56;99463.38;;;22.34;50.12
38191;BME280;25191;47.510;19.124;2024-02-26T12:20:08;99450.94;;;22.27;51.46
38191;BME280;25191;47.510;19.124;2024-02-26T12:40:10;99450.25;;;22.25;51.46
38191;BME280;25191;47.510;19.124;2024-02-26T13:00:20;99440.25;;;22.28;51.21
38191;BME280;25191;47.510;19.124;2024-02-26T13:20:29;99441.34;;;22.53;50.92
38191;BME280;25191;47.510;19.124;2024-02-26T13:40:30;99446.09;;;22.50;51.23
38191;BME280;25191;47.510;19.124;2024-02-26T14:00:30;99443.22;;;22.61;51.13
38191;BME280;25191;47.510;19.124;2024-02-26T14:20:34;99419.25;;;22.54;51.55
38191;BME280;25191;47.510;19.124;2024-02-26T14:40:35;99427.38;;;22.61;50.93
38191;BME280;25191;47.510;19.124;2024-02-26T15:00:36;99427.91;;;22.47;51.86
38191;BME280;25191;47.510;19.124;2024-02-26T15:20:41;99435.75;;;22.38;52.00
38191;BME280;25191;47.510;19.124;2024-02-26T15:40:43;99457.13;;;22.35;52.08
38191;BME280;25191;47.510;19.124;2024-02-26T16:00:44;99477.97;;;22.29;52.66
38191;BME280;25191;47.510;19.124;2024-02-26T16:20:45;99483.84;;;22.22;52.03
38191;BME280;25191;47.510;19.124;2024-02-26T16:40:45;99520.25;;;20.34;45.67
38191;BME280;25191;47.510;19.124;2024-02-26T17:00:47;99534.41;;;22.08;50.86
38191;BME280;25191;47.510;19.124;2024-02-26T17:20:48;99545.69;;;22.00;51.44
38191;BME280;25191;47.510;19.124;2024-02-26T17:40:48;99560.13;;;22.06;52.29
38191;BME280;25191;47.510;19.124;2024-02-26T18:00:48;99583.53;;;22.09;52.60
38191;BME280;25191;47.510;19.124;2024-02-26T18:20:49;99597.56;;;22.10;54.31
38191;BME280;25191;47.510;19.124;2024-02-26T18:40:55;99596.88;;;22.07;54.02
38191;BME280;25191;47.510;19.124;2024-02-26T19:00:58;99603.50;;;22.12;54.38
38191;BME280;25191;47.510;19.124;2024-02-26T19:20:59;99616.81;;;22.20;54.94
38191;BME280;25191;47.510;19.124;2024-02-26T19:41:01;99648.59;;;22.18;56.29
38191;BME280;25191;47.510;19.124;2024-02-26T20:01:02;99659.44;;;22.05;55.66
38191;BME280;25191;47.510;19.124;2024-02-26T20:21:11;99668.91;;;21.98;54.70
38191;BME280;25191;47.510;19.124;2024-02-26T20:41:15;99682.38;;;21.95;55.18
38191;BME280;25191;47.510;19.124;2024-02-26T21:01:17;99708.75;;;21.95;56.26
38191;BME280;25191;47.510;19.124;2024-02-26T21:21:18;99743.16;;;21.94;56.90
38191;BME280;25191;47.510;19.124;2024-02-26T21:41:20;99752.59;;;21.86;56.34
38191;BME280;25191;47.510;19.124;2024-02-26T22:01:20;99757.00;;;21.86;56.17
38191;BME280;25191;47.510;19.124;2024-02-26T22:21:21;99756.03;;;21.87;55.36
38191;BME280;25191;47.510;19.124;2024-02-26T22:41:22;99759.22;;;21.81;55.74
38191;BME280;25191;47.510;19.124;2024-02-26T23:01:22;99777.69;;;21.81;55.45
38191;BME280;25191;47.510;19.124;2024-02-26T23:21:24;99807.63;;;21.80;55.64
38191;BME280;25191;47.510;19.124;2024-02-26T23:41:24;99822.78;;;21.78;55.52
